sensor_id;sensor_type;location;lat;lon;timestamp;temperature;humidity
24103;DHT22;12278;53.058;9.028;2023-02-01T00:02:26;5.90;99.90
24103;DHT22;12278;53.058;9.028;2023-02-01T00:06:36;5.90;99.90
24103;DHT22;12278;53.058;9.028;2023-02-01T00:10:36;5.90;99.90
24103;DHT22;12278;53.058;9.028;2023-02-01T00:14:37;6.00;99.90
24103;DHT22;12278;53.058;9.028;2023-02-01T00:18:39;6.00;99.90
24103;DHT22;12278;53.058;9.028;2023-02-01T00:22:40;6.10;99.90
24103;DHT22;12278;53.058;9.028;2023-02-01T00:26:43;6.00;99.90
24103;DHT22;12278;53.058;9.028;2023-02-01T00:30:44;6.00;99.90
24103;DHT22;12278;53.058;9.028;2023-02-01T00:34:48;6.00;99.90
24103;DHT22;12278;53.058;9.028;2023-02-01T00:38:48;6.00;99.90
24103;DHT22;12278;53.058;9.028;2023-02-01T00:42:49;6.00;99.90
24103;DHT22;12278;53.058;9.028;2023-02-01T00:46:49;6.00;99.90
24103;DHT22;12278;53.058;9.028;2023-02-01T00:50:50;6.00;99.90
24103;DHT22;12278;53.058;9.028;2023-02-01T00:54:51;6.10;99.90
24103;DHT22;12278;53.058;9.028;2023-02-01T00:58:51;6.00;99.90
24103;DHT22;12278;53.058;9.028;2023-02-01T01:02:52;6.10;99.90
24103;DHT22;12278;53.058;9.028;2023-02-01T01:06:53;6.10;99.90
24103;DHT22;12278;53.058;9.028;2023-02-01T01:10:54;6.10;99.90
24103;DHT22;12278;53.058;9.028;2023-02-01T01:14:55;6.10;99.90
24103;DHT22;12278;53.058;9.028;2023-02-01T01:19:13;6.20;99.90
24103;DHT22;12278;53.058;9.028;2023-02-01T01:23:14;6.20;99.90
24103;DHT22;12278;53.058;9.028;2023-02-01T01:27:15;6.20;99.90
24103;DHT22;12278;53.058;9.028;2023-02-01T01:31:17;6.20;99.90
24103;DHT22;12278;53.058;9.028;2023-02-01T01:35:18;6.20;99.90
24103;DHT22;12278;53.058;9.028;2023-02-01T01:39:19;6.20;99.90
24103;DHT22;12278;53.058;9.028;2023-02-01T01:43:20;6.20;99.90
24103;DHT22;12278;53.058;9.028;2023-02-01T01:47:26;6.20;99.90
24103;DHT22;12278;53.058;9.028;2023-02-01T01:51:30;6.20;99.90
24103;DHT22;12278;53.058;9.028;2023-02-01T01:55:35;6.20;99.90
24103;DHT22;12278;53.058;9.028;2023-02-01T01:59:54;6.30;99.90
24103;DHT22;12278;53.058;9.028;2023-02-01T02:03:56;6.20;99.90
24103;DHT22;12278;53.058;9.028;2023-02-01T02:07:59;6.20;99.90
24103;DHT22;12278;53.058;9.028;2023-02-01T02:12:01;6.30;99.90
24103;DHT22;12278;53.058;9.028;2023-02-01T02:20:49;6.20;99.90
24103;DHT22;12278;53.058;9.028;2023-02-01T02:25:16;6.20;99.90
24103;DHT22;12278;53.058;9.028;2023-02-01T02:29:38;6.30;99.90
24103;DHT22;12278;53.058;9.028;2023-02-01T02:37:46;6.20;99.90
24103;DHT22;12278;53.058;9.028;2023-02-01T02:46:46;6.20;99.90
24103;DHT22;12278;53.058;9.028;2023-02-01T02:51:30;6.10;99.90
24103;DHT22;12278;53.058;9.028;2023-02-01T02:55:51;6.20;99.90
24103;DHT22;12278;53.058;9.028;2023-02-01T02:59:52;6.20;99.90
24103;DHT22;12278;53.058;9.028;2023-02-01T03:04:12;6.10;99.90
24103;DHT22;12278;53.058;9.028;2023-02-01T03:08:20;6.10;99.90
24103;DHT22;12278;53.058;9.028;2023-02-01T03:12:21;6.10;99.90
24103;DHT22;12278;53.058;9.028;2023-02-01T03:16:46;6.10;99.90
24103;DHT22;12278;53.058;9.028;2023-02-01T03:20:50;6.10;99.90
24103;DHT22;12278;53.058;9.028;2023-02-01T03:24:59;6.10;99.90
24103;DHT22;12278;53.058;9.028;2023-02-01T03:29:23;6.10;99.90
24103;DHT22;12278;53.058;9.028;2023-02-01T03:33:27;6.10;99.90
24103;DHT22;12278;53.058;9.028;2023-02-01T03:37:30;6.10;99.90
24103;DHT22;12278;53.058;9.028;2023-02-01T03:46:12;6.00;99.90
24103;DHT22;12278;53.058;9.028;2023-02-01T03:50:22;5.80;99.90
24103;DHT22;12278;53.058;9.028;2023-02-01T03:54:27;5.60;99.90
24103;DHT22;12278;53.058;9.028;2023-02-01T03:58:28;5.40;99.90
24103;DHT22;12278;53.058;9.028;2023-02-01T04:02:31;5.40;99.90
24103;DHT22;12278;53.058;9.028;2023-02-01T04:06:32;5.30;99.90
24103;DHT22;12278;53.058;9.028;2023-02-01T04:10:43;5.30;99.90
24103;DHT22;12278;53.058;9.028;2023-02-01T04:14:44;5.30;99.90
24103;DHT22;12278;53.058;9.028;2023-02-01T04:18:44;5.30;99.90
24103;DHT22;12278;53.058;9.028;2023-02-01T04:23:15;5.20;99.90
24103;DHT22;12278;53.058;9.028;2023-02-01T04:27:16;5.10;99.90
24103;DHT22;12278;53.058;9.028;2023-02-01T04:31:17;5.10;99.90
24103;DHT22;12278;53.058;9.028;2023-02-01T04:35:24;5.00;99.90
24103;DHT22;12278;53.058;9.028;2023-02-01T04:43:57;5.00;99.90
24103;DHT22;12278;53.058;9.028;2023-02-01T04:47:57;5.00;99.90
24103;DHT22;12278;53.058;9.028;2023-02-01T04:51:59;5.10;99.90
24103;DHT22;12278;53.058;9.028;2023-02-01T04:56:00;5.10;99.90
24103;DHT22;12278;53.058;9.028;2023-02-01T05:00:05;5.20;99.90
24103;DHT22;12278;53.058;9.028;2023-02-01T05:04:18;5.20;99.90
24103;DHT22;12278;53.058;9.028;2023-02-01T05:08:21;5.30;99.90
24103;DHT22;12278;53.058;9.028;2023-02-01T05:12:43;5.40;99.90
24103;DHT22;12278;53.058;9.028;2023-02-01T05:17:02;5.40;99.90
24103;DHT22;12278;53.058;9.028;2023-02-01T05:21:03;5.40;99.90
24103;DHT22;12278;53.058;9.028;2023-02-01T05:25:09;5.40;99.90
24103;DHT22;12278;53.058;9.028;2023-02-01T05:29:10;5.40;99.90
24103;DHT22;12278;53.058;9.028;2023-02-01T05:33:11;5.50;99.90
24103;DHT22;12278;53.058;9.028;2023-02-01T05:37:13;5.50;99.90
24103;DHT22;12278;53.058;9.028;2023-02-01T05:41:14;5.50;99.90
24103;DHT22;12278;53.058;9.028;2023-02-01T05:45:15;5.50;99.90
24103;DHT22;12278;53.058;9.028;2023-02-01T05:49:15;5.50;99.90
24103;DHT22;12278;53.058;9.028;2023-02-01T05:53:16;5.60;99.90
24103;DHT22;12278;53.058;9.028;2023-02-01T05:57:18;5.60;99.90
24103;DHT22;12278;53.058;9.028;2023-02-01T06:01:21;5.50;99.90
24103;DHT22;12278;53.058;9.028;2023-02-01T06:05:22;5.50;99.90
24103;DHT22;12278;53.058;9.028;2023-02-01T06:09:30;5.50;99.90
24103;DHT22;12278;53.058;9.028;2023-02-01T06:13:34;5.50;99.90
24103;DHT22;12278;53.058;9.028;2023-02-01T06:17:36;5.50;99.90
24103;DHT22;12278;53.058;9.028;2023-02-01T06:21:37;5.40;99.90
24103;DHT22;12278;53.058;9.028;2023-02-01T06:25:38;5.40;99.90
24103;DHT22;12278;53.058;9.028;2023-02-01T06:29:38;5.30;99.90
24103;DHT22;12278;53.058;9.028;2023-02-01T06:33:39;5.30;99.90
24103;DHT22;12278;53.058;9.028;2023-02-01T06:38:08;5.30;99.90
24103;DHT22;12278;53.058;9.028;2023-02-01T06:42:13;5.30;99.90
24103;DHT22;12278;53.058;9.028;2023-02-01T06:46:14;5.40;99.90
24103;DHT22;12278;53.058;9.028;2023-02-01T06:50:22;5.40;99.90
24103;DHT22;12278;53.058;9.028;2023-02-01T06:54:23;5.40;99.90
24103;DHT22;12278;53.058;9.028;2023-02-01T06:58:24;5.40;99.90
24103;DHT22;12278;53.058;9.028;2023-02-01T07:02:24;5.40;99.90
24103;DHT22;12278;53.058;9.028;2023-02-01T07:06:25;5.50;99.90
24103;DHT22;12278;53.058;9.028;2023-02-01T07:10:26;5.60;99.90
24103;DHT22;12278;53.058;9.028;2023-02-01T07:14:26;5.70;99.90
24103;DHT22;12278;53.058;9.028;2023-02-01T07:18:28;5.70;99.90
24103;DHT22;12278;53.058;9.028;2023-02-01T07:22:42;5.80;99.90
24103;DHT22;12278;53.058;9.028;2023-02-01T07:26:42;5.70;99.90
24103;DHT22;12278;53.058;9.028;2023-02-01T07:30:43;5.70;99.90
24103;DHT22;12278;53.058;9.028;2023-02-01T07:34:44;5.70;99.90
24103;DHT22;12278;53.058;9.028;2023-02-01T07:38:46;5.70;99.90
24103;DHT22;12278;53.058;9.028;2023-02-01T07:42:51;5.60;99.90
24103;DHT22;12278;53.058;9.028;2023-02-01T07:46:51;5.50;99.90
24103;DHT22;12278;53.058;9.028;2023-02-01T07:54:59;5.60;99.90
24103;DHT22;12278;53.058;9.028;2023-02-01T07:58:59;5.60;99.90
24103;DHT22;12278;53.058;9.028;2023-02-01T08:03:01;5.60;99.90
24103;DHT22;12278;53.058;9.028;2023-02-01T08:07:01;5.70;99.90
24103;DHT22;12278;53.058;9.028;2023-02-01T08:11:04;5.80;99.90
24103;DHT22;12278;53.058;9.028;2023-02-01T08:15:06;5.90;99.90
24103;DHT22;12278;53.058;9.028;2023-02-01T08:19:06;5.90;99.90
24103;DHT22;12278;53.058;9.028;2023-02-01T08:23:10;6.10;99.90
24103;DHT22;12278;53.058;9.028;2023-02-01T08:27:10;6.30;99.90
24103;DHT22;12278;53.058;9.028;2023-02-01T08:31:15;6.30;99.90
24103;DHT22;12278;53.058;9.028;2023-02-01T08:35:16;6.20;99.90
24103;DHT22;12278;53.058;9.028;2023-02-01T08:39:17;6.10;99.90
24103;DHT22;12278;53.058;9.028;2023-02-01T08:43:18;6.10;99.90
24103;DHT22;12278;53.058;9.028;2023-02-01T08:47:19;6.10;99.90
24103;DHT22;12278;53.058;9.028;2023-02-01T08:51:21;6.30;99.90
24103;DHT22;12278;53.058;9.028;2023-02-01T08:55:22;7.00;99.90
24103;DHT22;12278;53.058;9.028;2023-02-01T08:59:23;7.40;99.90
24103;DHT22;12278;53.058;9.028;2023-02-01T09:03:23;7.40;99.90
24103;DHT22;12278;53.058;9.028;2023-02-01T09:07:24;7.10;99.90
24103;DHT22;12278;53.058;9.028;2023-02-01T09:11:26;6.80;99.90
24103;DHT22;12278;53.058;9.028;2023-02-01T09:15:27;6.60;99.90
24103;DHT22;12278;53.058;9.028;2023-02-01T09:19:27;6.50;99.90
24103;DHT22;12278;53.058;9.028;2023-02-01T09:23:28;6.60;99.90
24103;DHT22;12278;53.058;9.028;2023-02-01T09:27:28;6.50;99.90
24103;DHT22;12278;53.058;9.028;2023-02-01T09:31:30;6.50;99.90
24103;DHT22;12278;53.058;9.028;2023-02-01T09:35:30;6.60;99.90
24103;DHT22;12278;53.058;9.028;2023-02-01T09:39:31;6.70;99.90
24103;DHT22;12278;53.058;9.028;2023-02-01T09:48:15;6.80;99.90
24103;DHT22;12278;53.058;9.028;2023-02-01T09:52:19;6.80;99.90
24103;DHT22;12278;53.058;9.028;2023-02-01T10:00:53;6.70;99.90
24103;DHT22;12278;53.058;9.028;2023-02-01T10:04:56;6.70;99.90
24103;DHT22;12278;53.058;9.028;2023-02-01T10:26:25;6.90;99.90
24103;DHT22;12278;53.058;9.028;2023-02-01T10:30:30;6.90;99.90
24103;DHT22;12278;53.058;9.028;2023-02-01T10:34:34;6.90;99.90
24103;DHT22;12278;53.058;9.028;2023-02-01T10:38:35;6.70;99.90
24103;DHT22;12278;53.058;9.028;2023-02-01T10:42:35;6.60;99.90
24103;DHT22;12278;53.058;9.028;2023-02-01T10:46:36;6.70;99.90
24103;DHT22;12278;53.058;9.028;2023-02-01T10:54:53;6.50;99.90
24103;DHT22;12278;53.058;9.028;2023-02-01T10:59:05;6.40;99.90
24103;DHT22;12278;53.058;9.028;2023-02-01T11:07:28;6.10;99.90
24103;DHT22;12278;53.058;9.028;2023-02-01T11:16:15;5.90;99.90
24103;DHT22;12278;53.058;9.028;2023-02-01T11:20:18;5.90;99.90
24103;DHT22;12278;53.058;9.028;2023-02-01T11:24:25;6.00;99.90
24103;DHT22;12278;53.058;9.028;2023-02-01T11:28:32;6.00;99.90
24103;DHT22;12278;53.058;9.028;2023-02-01T11:32:33;5.90;99.90
24103;DHT22;12278;53.058;9.028;2023-02-01T11:36:35;5.80;99.90
24103;DHT22;12278;53.058;9.028;2023-02-01T11:40:38;5.80;99.90
24103;DHT22;12278;53.058;9.028;2023-02-01T11:44:44;5.90;99.90
24103;DHT22;12278;53.058;9.028;2023-02-01T11:48:45;5.90;99.90
24103;DHT22;12278;53.058;9.028;2023-02-01T12:01:41;5.40;99.90
24103;DHT22;12278;53.058;9.028;2023-02-01T12:27:41;5.30;99.90
24103;DHT22;12278;53.058;9.028;2023-02-01T12:36:16;4.70;99.90
24103;DHT22;12278;53.058;9.028;2023-02-01T12:40:26;3.90;99.90
24103;DHT22;12278;53.058;9.028;2023-02-01T12:48:58;3.70;99.90
24103;DHT22;12278;53.058;9.028;2023-02-01T12:53:25;3.70;99.90
24103;DHT22;12278;53.058;9.028;2023-02-01T12:57:31;3.80;99.90
24103;DHT22;12278;53.058;9.028;2023-02-01T13:01:55;3.70;99.90
24103;DHT22;12278;53.058;9.028;2023-02-01T13:06:05;3.80;99.90
24103;DHT22;12278;53.058;9.028;2023-02-01T13:14:53;4.50;99.90
24103;DHT22;12278;53.058;9.028;2023-02-01T13:19:49;4.70;99.90
24103;DHT22;12278;53.058;9.028;2023-02-01T13:23:36;4.90;99.90
24103;DHT22;12278;53.058;9.028;2023-02-01T13:27:38;4.80;99.90
24103;DHT22;12278;53.058;9.028;2023-02-01T13:32:04;4.60;99.90
24103;DHT22;12278;53.058;9.028;2023-02-01T13:36:28;4.60;99.90
24103;DHT22;12278;53.058;9.028;2023-02-01T13:44:39;4.80;99.90
24103;DHT22;12278;53.058;9.028;2023-02-01T13:48:51;5.60;99.90
24103;DHT22;12278;53.058;9.028;2023-02-01T13:56:54;6.90;99.90
24103;DHT22;12278;53.058;9.028;2023-02-01T14:09:34;7.70;99.90
24103;DHT22;12278;53.058;9.028;2023-02-01T14:13:41;7.40;99.90
24103;DHT22;12278;53.058;9.028;2023-02-01T14:22:33;7.40;99.90
24103;DHT22;12278;53.058;9.028;2023-02-01T14:30:43;7.80;99.90
24103;DHT22;12278;53.058;9.028;2023-02-01T14:38:52;8.50;99.90
24103;DHT22;12278;53.058;9.028;2023-02-01T14:42:54;8.50;99.90
24103;DHT22;12278;53.058;9.028;2023-02-01T14:51:24;8.50;99.90
24103;DHT22;12278;53.058;9.028;2023-02-01T15:00:05;7.90;99.90
24103;DHT22;12278;53.058;9.028;2023-02-01T15:04:19;7.40;99.90
24103;DHT22;12278;53.058;9.028;2023-02-01T15:08:33;6.90;99.90
24103;DHT22;12278;53.058;9.028;2023-02-01T15:12:40;6.60;99.90
24103;DHT22;12278;53.058;9.028;2023-02-01T15:16:47;6.50;99.90
24103;DHT22;12278;53.058;9.028;2023-02-01T15:21:05;6.60;99.90
24103;DHT22;12278;53.058;9.028;2023-02-01T15:25:37;6.50;99.90
24103;DHT22;12278;53.058;9.028;2023-02-01T15:29:40;6.40;99.90
24103;DHT22;12278;53.058;9.028;2023-02-01T15:34:05;6.40;99.90
24103;DHT22;12278;53.058;9.028;2023-02-01T15:42:51;6.70;99.90
24103;DHT22;12278;53.058;9.028;2023-02-01T15:46:52;6.80;99.90
24103;DHT22;12278;53.058;9.028;2023-02-01T15:50:54;6.90;99.90
24103;DHT22;12278;53.058;9.028;2023-02-01T15:54:59;6.90;99.90
24103;DHT22;12278;53.058;9.028;2023-02-01T15:59:05;6.90;99.90
24103;DHT22;12278;53.058;9.028;2023-02-01T16:07:31;6.90;99.90
24103;DHT22;12278;53.058;9.028;2023-02-01T16:11:39;7.00;99.90
24103;DHT22;12278;53.058;9.028;2023-02-01T16:15:40;7.00;99.90
24103;DHT22;12278;53.058;9.028;2023-02-01T16:19:41;6.80;99.90
24103;DHT22;12278;53.058;9.028;2023-02-01T16:23:42;6.30;99.90
24103;DHT22;12278;53.058;9.028;2023-02-01T16:27:42;5.80;99.90
24103;DHT22;12278;53.058;9.028;2023-02-01T16:31:43;5.60;99.90
24103;DHT22;12278;53.058;9.028;2023-02-01T16:35:43;5.60;99.90
24103;DHT22;12278;53.058;9.028;2023-02-01T16:39:44;5.50;99.90
24103;DHT22;12278;53.058;9.028;2023-02-01T16:43:45;5.40;99.90
24103;DHT22;12278;53.058;9.028;2023-02-01T16:47:51;5.50;99.90
24103;DHT22;12278;53.058;9.028;2023-02-01T16:51:57;5.50;99.90
24103;DHT22;12278;53.058;9.028;2023-02-01T16:56:00;5.60;99.90
24103;DHT22;12278;53.058;9.028;2023-02-01T17:00:01;5.70;99.90
24103;DHT22;12278;53.058;9.028;2023-02-01T17:04:04;5.60;99.90
24103;DHT22;12278;53.058;9.028;2023-02-01T17:08:06;5.50;99.90
24103;DHT22;12278;53.058;9.028;2023-02-01T17:12:23;5.60;99.90
24103;DHT22;12278;53.058;9.028;2023-02-01T17:16:27;5.70;99.90
24103;DHT22;12278;53.058;9.028;2023-02-01T17:20:30;5.90;99.90
24103;DHT22;12278;53.058;9.028;2023-02-01T17:24:32;6.00;99.90
24103;DHT22;12278;53.058;9.028;2023-02-01T17:28:32;5.90;99.90
24103;DHT22;12278;53.058;9.028;2023-02-01T17:32:33;5.40;99.90
24103;DHT22;12278;53.058;9.028;2023-02-01T17:36:34;4.70;99.90
24103;DHT22;12278;53.058;9.028;2023-02-01T17:40:35;4.30;99.90
24103;DHT22;12278;53.058;9.028;2023-02-01T17:44:36;4.20;99.90
24103;DHT22;12278;53.058;9.028;2023-02-01T17:48:37;4.30;99.90
24103;DHT22;12278;53.058;9.028;2023-02-01T17:52:38;4.40;99.90
24103;DHT22;12278;53.058;9.028;2023-02-01T17:56:39;4.40;99.90
24103;DHT22;12278;53.058;9.028;2023-02-01T18:00:40;4.50;99.90
24103;DHT22;12278;53.058;9.028;2023-02-01T18:04:41;4.60;99.90
24103;DHT22;12278;53.058;9.028;2023-02-01T18:08:42;4.60;99.90
24103;DHT22;12278;53.058;9.028;2023-02-01T18:12:42;4.70;99.90
24103;DHT22;12278;53.058;9.028;2023-02-01T18:16:43;5.00;99.90
24103;DHT22;12278;53.058;9.028;2023-02-01T18:20:51;5.00;99.90
24103;DHT22;12278;53.058;9.028;2023-02-01T18:24:53;5.00;99.90
24103;DHT22;12278;53.058;9.028;2023-02-01T18:28:53;5.30;99.90
24103;DHT22;12278;53.058;9.028;2023-02-01T18:32:54;5.40;99.90
24103;DHT22;12278;53.058;9.028;2023-02-01T18:36:57;5.60;99.90
24103;DHT22;12278;53.058;9.028;2023-02-01T18:40:58;5.60;99.90
24103;DHT22;12278;53.058;9.028;2023-02-01T18:45:00;5.60;99.90
24103;DHT22;12278;53.058;9.028;2023-02-01T18:49:01;5.60;99.90
24103;DHT22;12278;53.058;9.028;2023-02-01T18:53:04;5.60;99.90
24103;DHT22;12278;53.058;9.028;2023-02-01T18:57:12;5.70;99.90
24103;DHT22;12278;53.058;9.028;2023-02-01T19:01:17;5.80;99.90
24103;DHT22;12278;53.058;9.028;2023-02-01T19:05:19;5.80;99.90
24103;DHT22;12278;53.058;9.028;2023-02-01T19:09:19;5.90;99.90
24103;DHT22;12278;53.058;9.028;2023-02-01T19:13:20;5.70;99.90
24103;DHT22;12278;53.058;9.028;2023-02-01T19:17:23;5.70;99.90
24103;DHT22;12278;53.058;9.028;2023-02-01T19:21:24;5.70;99.90
24103;DHT22;12278;53.058;9.028;2023-02-01T19:25:26;5.70;99.90
24103;DHT22;12278;53.058;9.028;2023-02-01T19:29:27;5.70;99.90
24103;DHT22;12278;53.058;9.028;2023-02-01T19:33:31;5.80;99.90
24103;DHT22;12278;53.058;9.028;2023-02-01T19:37:31;5.90;99.90
24103;DHT22;12278;53.058;9.028;2023-02-01T19:41:34;5.80;99.90
24103;DHT22;12278;53.058;9.028;2023-02-01T19:45:35;6.00;99.90
24103;DHT22;12278;53.058;9.028;2023-02-01T19:49:36;6.10;99.90
24103;DHT22;12278;53.058;9.028;2023-02-01T19:53:42;6.20;99.90
24103;DHT22;12278;53.058;9.028;2023-02-01T19:57:42;6.20;99.90
24103;DHT22;12278;53.058;9.028;2023-02-01T20:01:44;6.20;99.90
24103;DHT22;12278;53.058;9.028;2023-02-01T20:05:50;6.30;99.90
24103;DHT22;12278;53.058;9.028;2023-02-01T20:09:52;6.30;99.90
24103;DHT22;12278;53.058;9.028;2023-02-01T20:13:53;6.30;99.90
24103;DHT22;12278;53.058;9.028;2023-02-01T20:17:54;6.30;99.90
24103;DHT22;12278;53.058;9.028;2023-02-01T20:21:58;6.30;99.90
24103;DHT22;12278;53.058;9.028;2023-02-01T20:26:10;6.20;99.90
24103;DHT22;12278;53.058;9.028;2023-02-01T20:30:12;6.20;99.90
24103;DHT22;12278;53.058;9.028;2023-02-01T20:34:49;6.10;99.90
24103;DHT22;12278;53.058;9.028;2023-02-01T20:38:53;6.10;99.90
24103;DHT22;12278;53.058;9.028;2023-02-01T20:42:57;6.20;99.90
24103;DHT22;12278;53.058;9.028;2023-02-01T20:46:57;6.10;99.90
24103;DHT22;12278;53.058;9.028;2023-02-01T20:50:58;6.20;99.90
24103;DHT22;12278;53.058;9.028;2023-02-01T20:54:59;6.30;99.90
24103;DHT22;12278;53.058;9.028;2023-02-01T20:59:22;6.20;99.90
24103;DHT22;12278;53.058;9.028;2023-02-01T21:03:23;6.10;99.90
24103;DHT22;12278;53.058;9.028;2023-02-01T21:07:23;6.20;99.90
24103;DHT22;12278;53.058;9.028;2023-02-01T21:11:24;6.20;99.90
24103;DHT22;12278;53.058;9.028;2023-02-01T21:15:25;6.20;99.90
24103;DHT22;12278;53.058;9.028;2023-02-01T21:19:40;6.20;99.90
24103;DHT22;12278;53.058;9.028;2023-02-01T21:23:44;6.20;99.90
24103;DHT22;12278;53.058;9.028;2023-02-01T21:27:55;6.20;99.90
24103;DHT22;12278;53.058;9.028;2023-02-01T21:31:56;6.10;99.90
24103;DHT22;12278;53.058;9.028;2023-02-01T21:35:57;6.30;99.90
24103;DHT22;12278;53.058;9.028;2023-02-01T21:39:58;6.20;99.90
24103;DHT22;12278;53.058;9.028;2023-02-01T21:44:14;6.20;99.90
24103;DHT22;12278;53.058;9.028;2023-02-01T21:48:15;6.20;99.90
24103;DHT22;12278;53.058;9.028;2023-02-01T21:52:16;6.10;99.90
24103;DHT22;12278;53.058;9.028;2023-02-01T21:56:17;6.10;99.90
24103;DHT22;12278;53.058;9.028;2023-02-01T22:00:17;6.10;99.90
24103;DHT22;12278;53.058;9.028;2023-02-01T22:04:18;6.20;99.90
24103;DHT22;12278;53.058;9.028;2023-02-01T22:08:19;6.20;99.90
24103;DHT22;12278;53.058;9.028;2023-02-01T22:12:19;6.20;99.90
24103;DHT22;12278;53.058;9.028;2023-02-01T22:16:21;6.20;99.90
24103;DHT22;12278;53.058;9.028;2023-02-01T22:20:21;6.20;99.90
24103;DHT22;12278;53.058;9.028;2023-02-01T22:24:22;6.20;99.90
24103;DHT22;12278;53.058;9.028;2023-02-01T22:33:01;6.30;99.90
24103;DHT22;12278;53.058;9.028;2023-02-01T22:37:01;6.30;99.90
24103;DHT22;12278;53.058;9.028;2023-02-01T22:41:04;6.40;99.90
24103;DHT22;12278;53.058;9.028;2023-02-01T22:45:05;6.40;99.90
24103;DHT22;12278;53.058;9.028;2023-02-01T22:49:06;6.20;99.90
24103;DHT22;12278;53.058;9.028;2023-02-01T22:53:33;6.30;99.90
24103;DHT22;12278;53.058;9.028;2023-02-01T22:57:33;6.30;99.90
24103;DHT22;12278;53.058;9.028;2023-02-01T23:01:35;6.20;99.90
24103;DHT22;12278;53.058;9.028;2023-02-01T23:05:36;6.20;99.90
24103;DHT22;12278;53.058;9.028;2023-02-01T23:09:36;6.20;99.90
24103;DHT22;12278;53.058;9.028;2023-02-01T23:13:37;6.30;99.90
24103;DHT22;12278;53.058;9.028;2023-02-01T23:17:39;6.30;99.90
24103;DHT22;12278;53.058;9.028;2023-02-01T23:21:40;6.20;99.90
24103;DHT22;12278;53.058;9.028;2023-02-01T23:25:41;6.20;99.90
24103;DHT22;12278;53.058;9.028;2023-02-01T23:29:50;6.20;99.90
24103;DHT22;12278;53.058;9.028;2023-02-01T23:33:51;6.20;99.90
24103;DHT22;12278;53.058;9.028;2023-02-01T23:37:54;6.20;99.90
24103;DHT22;12278;53.058;9.028;2023-02-01T23:42:10;6.30;99.90
24103;DHT22;12278;53.058;9.028;2023-02-01T23:46:12;6.30;99.90
24103;DHT22;12278;53.058;9.028;2023-02-01T23:50:15;6.40;99.90
24103;DHT22;12278;53.058;9.028;2023-02-01T23:54:15;6.50;99.90
24103;DHT22;12278;53.058;9.028;2023-02-01T23:58:16;6.50;99.90
